sensor_id;sensor_type;location;lat;lon;timestamp;P1;durP1;ratioP1;P2;durP2;ratioP2
14342;SDS011;7255;53.596;9.960;2023-11-19T00:00:24;8.20;;;6.17;;
14342;SDS011;7255;53.596;9.960;2023-11-19T00:02:51;7.27;;;4.70;;
14342;SDS011;7255;53.596;9.960;2023-11-19T00:05:17;9.57;;;6.53;;
14342;SDS011;7255;53.596;9.960;2023-11-19T00:07:44;9.27;;;6.77;;
14342;SDS011;7255;53.596;9.960;2023-11-19T00:10:11;8.27;;;6.13;;
14342;SDS011;7255;53.596;9.960;2023-11-19T00:12:40;8.10;;;6.87;;
14342;SDS011;7255;53.596;9.960;2023-11-19T00:15:09;9.33;;;6.03;;
14342;SDS011;7255;53.596;9.960;2023-11-19T00:17:36;7.43;;;5.37;;
14342;SDS011;7255;53.596;9.960;2023-11-19T00:20:03;8.53;;;5.67;;
14342;SDS011;7255;53.596;9.960;2023-11-19T00:22:30;6.33;;;5.13;;
14342;SDS011;7255;53.596;9.960;2023-11-19T00:24:57;7.17;;;5.13;;
14342;SDS011;7255;53.596;9.960;2023-11-19T00:27:24;5.87;;;4.60;;
14342;SDS011;7255;53.596;9.960;2023-11-19T00:29:52;5.37;;;4.50;;
14342;SDS011;7255;53.596;9.960;2023-11-19T00:32:18;7.73;;;5.20;;
14342;SDS011;7255;53.596;9.960;2023-11-19T00:34:45;5.57;;;4.23;;
14342;SDS011;7255;53.596;9.960;2023-11-19T00:37:12;7.47;;;4.90;;
14342;SDS011;7255;53.596;9.960;2023-11-19T00:39:40;6.07;;;4.53;;
14342;SDS011;7255;53.596;9.960;2023-11-19T00:42:06;5.43;;;4.57;;
14342;SDS011;7255;53.596;9.960;2023-11-19T00:44:33;5.57;;;4.47;;
14342;SDS011;7255;53.596;9.960;2023-11-19T00:47:00;7.47;;;4.70;;
14342;SDS011;7255;53.596;9.960;2023-11-19T00:49:27;5.10;;;4.10;;
14342;SDS011;7255;53.596;9.960;2023-11-19T00:51:53;6.20;;;3.83;;
14342;SDS011;7255;53.596;9.960;2023-11-19T00:54:19;4.53;;;3.87;;
14342;SDS011;7255;53.596;9.960;2023-11-19T00:56:46;4.90;;;4.40;;
14342;SDS011;7255;53.596;9.960;2023-11-19T00:59:12;5.20;;;3.97;;
14342;SDS011;7255;53.596;9.960;2023-11-19T01:01:39;5.63;;;4.33;;
14342;SDS011;7255;53.596;9.960;2023-11-19T01:04:06;4.30;;;3.90;;
14342;SDS011;7255;53.596;9.960;2023-11-19T01:06:33;4.83;;;3.93;;
14342;SDS011;7255;53.596;9.960;2023-11-19T01:08:59;6.03;;;3.83;;
14342;SDS011;7255;53.596;9.960;2023-11-19T01:11:26;4.90;;;3.53;;
14342;SDS011;7255;53.596;9.960;2023-11-19T01:13:53;4.43;;;3.63;;
14342;SDS011;7255;53.596;9.960;2023-11-19T01:16:19;3.70;;;3.17;;
14342;SDS011;7255;53.596;9.960;2023-11-19T01:18:47;5.13;;;3.50;;
14342;SDS011;7255;53.596;9.960;2023-11-19T01:21:15;5.33;;;3.27;;
14342;SDS011;7255;53.596;9.960;2023-11-19T01:23:42;4.10;;;3.70;;
14342;SDS011;7255;53.596;9.960;2023-11-19T01:26:09;5.60;;;3.60;;
14342;SDS011;7255;53.596;9.960;2023-11-19T01:28:36;4.17;;;3.00;;
14342;SDS011;7255;53.596;9.960;2023-11-19T01:31:04;3.83;;;3.20;;
14342;SDS011;7255;53.596;9.960;2023-11-19T01:33:31;3.73;;;2.83;;
14342;SDS011;7255;53.596;9.960;2023-11-19T01:35:57;2.73;;;2.53;;
14342;SDS011;7255;53.596;9.960;2023-11-19T01:38:25;3.03;;;2.57;;
14342;SDS011;7255;53.596;9.960;2023-11-19T01:40:55;3.47;;;2.97;;
14342;SDS011;7255;53.596;9.960;2023-11-19T01:43:30;2.90;;;2.60;;
14342;SDS011;7255;53.596;9.960;2023-11-19T01:45:58;3.67;;;3.20;;
14342;SDS011;7255;53.596;9.960;2023-11-19T01:48:24;3.40;;;2.93;;
14342;SDS011;7255;53.596;9.960;2023-11-19T01:50:51;4.40;;;2.93;;
14342;SDS011;7255;53.596;9.960;2023-11-19T01:53:18;3.40;;;3.10;;
14342;SDS011;7255;53.596;9.960;2023-11-19T01:55:47;5.20;;;3.50;;
14342;SDS011;7255;53.596;9.960;2023-11-19T01:58:13;3.20;;;2.80;;
14342;SDS011;7255;53.596;9.960;2023-11-19T02:00:40;3.40;;;2.97;;
14342;SDS011;7255;53.596;9.960;2023-11-19T02:03:08;3.83;;;3.20;;
14342;SDS011;7255;53.596;9.960;2023-11-19T02:05:34;2.70;;;2.50;;
14342;SDS011;7255;53.596;9.960;2023-11-19T02:08:01;3.27;;;2.97;;
14342;SDS011;7255;53.596;9.960;2023-11-19T02:10:28;2.77;;;2.57;;
14342;SDS011;7255;53.596;9.960;2023-11-19T02:12:56;2.73;;;2.53;;
14342;SDS011;7255;53.596;9.960;2023-11-19T02:15:22;3.33;;;3.00;;
14342;SDS011;7255;53.596;9.960;2023-11-19T02:17:49;3.00;;;2.70;;
14342;SDS011;7255;53.596;9.960;2023-11-19T02:23:05;3.00;;;2.80;;
14342;SDS011;7255;53.596;9.960;2023-11-19T02:25:32;2.70;;;2.50;;
14342;SDS011;7255;53.596;9.960;2023-11-19T02:28:01;3.30;;;3.00;;
14342;SDS011;7255;53.596;9.960;2023-11-19T02:30:28;2.90;;;2.70;;
14342;SDS011;7255;53.596;9.960;2023-11-19T02:32:55;2.87;;;2.63;;
14342;SDS011;7255;53.596;9.960;2023-11-19T02:35:22;2.70;;;2.50;;
14342;SDS011;7255;53.596;9.960;2023-11-19T02:37:48;3.40;;;3.10;;
14342;SDS011;7255;53.596;9.960;2023-11-19T02:40:15;2.90;;;2.63;;
14342;SDS011;7255;53.596;9.960;2023-11-19T02:42:42;3.30;;;3.00;;
14342;SDS011;7255;53.596;9.960;2023-11-19T02:45:10;3.23;;;2.90;;
14342;SDS011;7255;53.596;9.960;2023-11-19T02:47:39;2.70;;;2.50;;
14342;SDS011;7255;53.596;9.960;2023-11-19T02:50:06;3.30;;;2.90;;
14342;SDS011;7255;53.596;9.960;2023-11-19T02:52:38;2.70;;;2.37;;
14342;SDS011;7255;53.596;9.960;2023-11-19T02:55:05;2.30;;;2.10;;
14342;SDS011;7255;53.596;9.960;2023-11-19T02:57:34;2.93;;;2.40;;
14342;SDS011;7255;53.596;9.960;2023-11-19T03:00:00;2.80;;;2.50;;
14342;SDS011;7255;53.596;9.960;2023-11-19T03:02:38;2.83;;;2.53;;
14342;SDS011;7255;53.596;9.960;2023-11-19T03:05:12;2.63;;;2.43;;
14342;SDS011;7255;53.596;9.960;2023-11-19T03:07:40;5.23;;;2.40;;
14342;SDS011;7255;53.596;9.960;2023-11-19T03:10:07;2.80;;;2.60;;
14342;SDS011;7255;53.596;9.960;2023-11-19T03:12:37;2.60;;;2.40;;
14342;SDS011;7255;53.596;9.960;2023-11-19T03:15:04;2.57;;;2.37;;
14342;SDS011;7255;53.596;9.960;2023-11-19T03:17:30;2.67;;;2.47;;
14342;SDS011;7255;53.596;9.960;2023-11-19T03:19:58;2.77;;;2.30;;
14342;SDS011;7255;53.596;9.960;2023-11-19T03:22:24;2.60;;;2.40;;
14342;SDS011;7255;53.596;9.960;2023-11-19T03:24:51;2.63;;;2.23;;
14342;SDS011;7255;53.596;9.960;2023-11-19T03:27:17;2.27;;;2.07;;
14342;SDS011;7255;53.596;9.960;2023-11-19T03:29:43;2.67;;;2.33;;
14342;SDS011;7255;53.596;9.960;2023-11-19T03:32:10;2.67;;;2.47;;
14342;SDS011;7255;53.596;9.960;2023-11-19T03:34:37;2.93;;;2.60;;
14342;SDS011;7255;53.596;9.960;2023-11-19T03:37:04;2.60;;;2.40;;
14342;SDS011;7255;53.596;9.960;2023-11-19T03:39:31;4.50;;;2.70;;
14342;SDS011;7255;53.596;9.960;2023-11-19T03:41:57;2.53;;;2.33;;
14342;SDS011;7255;53.596;9.960;2023-11-19T03:44:25;2.90;;;2.70;;
14342;SDS011;7255;53.596;9.960;2023-11-19T03:46:52;2.83;;;2.63;;
14342;SDS011;7255;53.596;9.960;2023-11-19T03:49:18;4.60;;;3.07;;
14342;SDS011;7255;53.596;9.960;2023-11-19T03:51:44;3.37;;;2.67;;
14342;SDS011;7255;53.596;9.960;2023-11-19T03:54:12;3.07;;;2.77;;
14342;SDS011;7255;53.596;9.960;2023-11-19T03:56:38;2.77;;;2.57;;
14342;SDS011;7255;53.596;9.960;2023-11-19T03:59:04;2.80;;;2.60;;
14342;SDS011;7255;53.596;9.960;2023-11-19T04:01:31;4.33;;;3.10;;
14342;SDS011;7255;53.596;9.960;2023-11-19T04:03:57;3.00;;;2.70;;
14342;SDS011;7255;53.596;9.960;2023-11-19T04:06:24;3.13;;;2.83;;
14342;SDS011;7255;53.596;9.960;2023-11-19T04:08:50;3.60;;;3.30;;
14342;SDS011;7255;53.596;9.960;2023-11-19T04:11:18;5.60;;;3.00;;
14342;SDS011;7255;53.596;9.960;2023-11-19T04:13:44;3.40;;;3.10;;
14342;SDS011;7255;53.596;9.960;2023-11-19T04:16:10;4.43;;;3.57;;
14342;SDS011;7255;53.596;9.960;2023-11-19T04:18:36;5.10;;;3.70;;
14342;SDS011;7255;53.596;9.960;2023-11-19T04:21:05;5.30;;;3.70;;
14342;SDS011;7255;53.596;9.960;2023-11-19T04:23:32;4.03;;;3.63;;
14342;SDS011;7255;53.596;9.960;2023-11-19T04:26:01;4.25;;;3.85;;
14342;SDS011;7255;53.596;9.960;2023-11-19T04:28:30;4.77;;;3.40;;
14342;SDS011;7255;53.596;9.960;2023-11-19T04:30:56;4.32;;;3.28;;
14342;SDS011;7255;53.596;9.960;2023-11-19T04:33:23;4.40;;;3.83;;
14342;SDS011;7255;53.596;9.960;2023-11-19T04:35:50;5.13;;;4.37;;
14342;SDS011;7255;53.596;9.960;2023-11-19T04:38:16;6.40;;;4.30;;
14342;SDS011;7255;53.596;9.960;2023-11-19T04:40:42;5.13;;;4.20;;
14342;SDS011;7255;53.596;9.960;2023-11-19T04:43:09;5.67;;;4.83;;
14342;SDS011;7255;53.596;9.960;2023-11-19T04:45:36;6.72;;;4.78;;
14342;SDS011;7255;53.596;9.960;2023-11-19T04:48:04;6.13;;;4.30;;
14342;SDS011;7255;53.596;9.960;2023-11-19T04:50:30;6.77;;;4.63;;
14342;SDS011;7255;53.596;9.960;2023-11-19T04:52:56;5.53;;;4.90;;
14342;SDS011;7255;53.596;9.960;2023-11-19T04:55:23;6.37;;;5.23;;
14342;SDS011;7255;53.596;9.960;2023-11-19T04:57:49;6.90;;;5.67;;
14342;SDS011;7255;53.596;9.960;2023-11-19T05:00:15;7.57;;;5.67;;
14342;SDS011;7255;53.596;9.960;2023-11-19T05:02:43;7.82;;;5.40;;
14342;SDS011;7255;53.596;9.960;2023-11-19T05:05:09;8.07;;;6.07;;
14342;SDS011;7255;53.596;9.960;2023-11-19T05:07:36;9.48;;;6.15;;
14342;SDS011;7255;53.596;9.960;2023-11-19T05:10:03;9.47;;;6.63;;
14342;SDS011;7255;53.596;9.960;2023-11-19T05:12:31;10.80;;;6.93;;
14342;SDS011;7255;53.596;9.960;2023-11-19T05:14:57;9.13;;;7.03;;
14342;SDS011;7255;53.596;9.960;2023-11-19T05:17:23;10.23;;;6.57;;
14342;SDS011;7255;53.596;9.960;2023-11-19T05:19:50;14.27;;;7.50;;
14342;SDS011;7255;53.596;9.960;2023-11-19T05:22:16;13.75;;;7.12;;
14342;SDS011;7255;53.596;9.960;2023-11-19T05:24:43;15.18;;;7.20;;
14342;SDS011;7255;53.596;9.960;2023-11-19T05:27:09;12.73;;;9.15;;
14342;SDS011;7255;53.596;9.960;2023-11-19T05:29:38;16.52;;;8.82;;
14342;SDS011;7255;53.596;9.960;2023-11-19T05:32:06;13.02;;;8.93;;
14342;SDS011;7255;53.596;9.960;2023-11-19T05:34:32;14.73;;;8.07;;
14342;SDS011;7255;53.596;9.960;2023-11-19T05:37:00;15.55;;;9.93;;
14342;SDS011;7255;53.596;9.960;2023-11-19T05:39:27;16.50;;;10.02;;
14342;SDS011;7255;53.596;9.960;2023-11-19T05:41:53;13.70;;;9.45;;
14342;SDS011;7255;53.596;9.960;2023-11-19T05:44:20;18.52;;;10.00;;
14342;SDS011;7255;53.596;9.960;2023-11-19T05:46:46;22.00;;;10.15;;
14342;SDS011;7255;53.596;9.960;2023-11-19T05:49:12;22.02;;;10.73;;
14342;SDS011;7255;53.596;9.960;2023-11-19T05:51:39;25.15;;;10.82;;
14342;SDS011;7255;53.596;9.960;2023-11-19T05:54:07;16.55;;;10.45;;
14342;SDS011;7255;53.596;9.960;2023-11-19T05:56:35;21.87;;;11.07;;
14342;SDS011;7255;53.596;9.960;2023-11-19T05:59:02;19.83;;;12.07;;
14342;SDS011;7255;53.596;9.960;2023-11-19T06:01:32;20.42;;;11.82;;
14342;SDS011;7255;53.596;9.960;2023-11-19T06:03:58;27.02;;;11.25;;
14342;SDS011;7255;53.596;9.960;2023-11-19T06:06:25;22.65;;;11.63;;
14342;SDS011;7255;53.596;9.960;2023-11-19T06:08:52;21.35;;;11.82;;
14342;SDS011;7255;53.596;9.960;2023-11-19T06:11:19;22.02;;;12.23;;
14342;SDS011;7255;53.596;9.960;2023-11-19T06:13:46;22.80;;;11.25;;
14342;SDS011;7255;53.596;9.960;2023-11-19T06:16:12;26.80;;;12.70;;
14342;SDS011;7255;53.596;9.960;2023-11-19T06:18:39;24.00;;;12.10;;
14342;SDS011;7255;53.596;9.960;2023-11-19T06:21:06;25.65;;;11.90;;
14342;SDS011;7255;53.596;9.960;2023-11-19T06:23:32;19.65;;;11.23;;
14342;SDS011;7255;53.596;9.960;2023-11-19T06:25:59;18.30;;;11.30;;
14342;SDS011;7255;53.596;9.960;2023-11-19T06:28:26;24.30;;;10.98;;
14342;SDS011;7255;53.596;9.960;2023-11-19T06:30:53;25.27;;;11.88;;
14342;SDS011;7255;53.596;9.960;2023-11-19T06:33:19;22.98;;;10.50;;
14342;SDS011;7255;53.596;9.960;2023-11-19T06:35:45;24.17;;;10.30;;
14342;SDS011;7255;53.596;9.960;2023-11-19T06:38:12;26.73;;;11.15;;
14342;SDS011;7255;53.596;9.960;2023-11-19T06:40:38;25.30;;;10.55;;
14342;SDS011;7255;53.596;9.960;2023-11-19T06:43:06;23.20;;;9.80;;
14342;SDS011;7255;53.596;9.960;2023-11-19T06:45:34;21.73;;;8.18;;
14342;SDS011;7255;53.596;9.960;2023-11-19T06:48:01;19.42;;;9.15;;
14342;SDS011;7255;53.596;9.960;2023-11-19T06:50:29;21.73;;;9.05;;
14342;SDS011;7255;53.596;9.960;2023-11-19T06:52:55;23.15;;;9.57;;
14342;SDS011;7255;53.596;9.960;2023-11-19T06:55:22;27.50;;;9.13;;
14342;SDS011;7255;53.596;9.960;2023-11-19T06:57:48;23.58;;;9.15;;
14342;SDS011;7255;53.596;9.960;2023-11-19T07:00:15;18.62;;;8.07;;
14342;SDS011;7255;53.596;9.960;2023-11-19T07:02:44;26.12;;;8.93;;
14342;SDS011;7255;53.596;9.960;2023-11-19T07:05:10;23.00;;;7.87;;
14342;SDS011;7255;53.596;9.960;2023-11-19T07:07:38;25.00;;;8.32;;
14342;SDS011;7255;53.596;9.960;2023-11-19T07:10:05;20.52;;;7.80;;
14342;SDS011;7255;53.596;9.960;2023-11-19T07:12:34;17.87;;;7.35;;
14342;SDS011;7255;53.596;9.960;2023-11-19T07:15:01;19.58;;;6.90;;
14342;SDS011;7255;53.596;9.960;2023-11-19T07:17:28;24.50;;;6.95;;
14342;SDS011;7255;53.596;9.960;2023-11-19T07:19:55;20.08;;;7.12;;
14342;SDS011;7255;53.596;9.960;2023-11-19T07:22:24;19.15;;;5.50;;
14342;SDS011;7255;53.596;9.960;2023-11-19T07:24:50;24.67;;;7.72;;
14342;SDS011;7255;53.596;9.960;2023-11-19T07:27:18;23.48;;;6.25;;
14342;SDS011;7255;53.596;9.960;2023-11-19T07:29:44;14.48;;;5.28;;
14342;SDS011;7255;53.596;9.960;2023-11-19T07:32:11;17.33;;;5.60;;
14342;SDS011;7255;53.596;9.960;2023-11-19T07:34:38;19.92;;;5.85;;
14342;SDS011;7255;53.596;9.960;2023-11-19T07:37:06;11.63;;;4.35;;
14342;SDS011;7255;53.596;9.960;2023-11-19T07:39:32;21.90;;;5.10;;
14342;SDS011;7255;53.596;9.960;2023-11-19T07:42:00;18.30;;;4.43;;
14342;SDS011;7255;53.596;9.960;2023-11-19T07:44:26;15.80;;;4.68;;
14342;SDS011;7255;53.596;9.960;2023-11-19T07:46:52;14.50;;;5.15;;
14342;SDS011;7255;53.596;9.960;2023-11-19T07:49:19;19.37;;;5.07;;
14342;SDS011;7255;53.596;9.960;2023-11-19T07:51:45;22.25;;;5.10;;
14342;SDS011;7255;53.596;9.960;2023-11-19T07:54:13;16.25;;;5.25;;
14342;SDS011;7255;53.596;9.960;2023-11-19T07:56:39;23.33;;;4.18;;
14342;SDS011;7255;53.596;9.960;2023-11-19T07:59:06;24.40;;;5.30;;
14342;SDS011;7255;53.596;9.960;2023-11-19T08:01:32;18.85;;;5.28;;
14342;SDS011;7255;53.596;9.960;2023-11-19T08:03:58;16.15;;;4.60;;
14342;SDS011;7255;53.596;9.960;2023-11-19T08:06:26;16.55;;;4.57;;
14342;SDS011;7255;53.596;9.960;2023-11-19T08:08:53;19.00;;;4.80;;
14342;SDS011;7255;53.596;9.960;2023-11-19T08:11:20;19.42;;;4.57;;
14342;SDS011;7255;53.596;9.960;2023-11-19T08:13:47;36.20;;;5.60;;
14342;SDS011;7255;53.596;9.960;2023-11-19T08:16:13;26.65;;;6.25;;
14342;SDS011;7255;53.596;9.960;2023-11-19T08:18:41;24.92;;;5.50;;
14342;SDS011;7255;53.596;9.960;2023-11-19T08:21:07;32.03;;;5.50;;
14342;SDS011;7255;53.596;9.960;2023-11-19T08:23:34;29.17;;;4.57;;
14342;SDS011;7255;53.596;9.960;2023-11-19T08:26:00;17.90;;;3.95;;
14342;SDS011;7255;53.596;9.960;2023-11-19T08:28:28;21.60;;;6.70;;
14342;SDS011;7255;53.596;9.960;2023-11-19T08:30:54;22.20;;;5.20;;
14342;SDS011;7255;53.596;9.960;2023-11-19T08:33:20;19.37;;;4.75;;
14342;SDS011;7255;53.596;9.960;2023-11-19T08:35:47;23.08;;;4.68;;
14342;SDS011;7255;53.596;9.960;2023-11-19T08:38:14;27.65;;;5.37;;
14342;SDS011;7255;53.596;9.960;2023-11-19T08:40:40;16.27;;;4.80;;
14342;SDS011;7255;53.596;9.960;2023-11-19T08:43:06;25.98;;;5.65;;
14342;SDS011;7255;53.596;9.960;2023-11-19T08:45:34;26.67;;;4.93;;
14342;SDS011;7255;53.596;9.960;2023-11-19T08:48:01;17.27;;;4.20;;
14342;SDS011;7255;53.596;9.960;2023-11-19T08:50:27;21.15;;;4.95;;
14342;SDS011;7255;53.596;9.960;2023-11-19T08:52:54;26.58;;;5.28;;
14342;SDS011;7255;53.596;9.960;2023-11-19T08:55:20;23.92;;;4.43;;
14342;SDS011;7255;53.596;9.960;2023-11-19T08:57:46;23.50;;;4.70;;
14342;SDS011;7255;53.596;9.960;2023-11-19T09:00:13;19.25;;;5.68;;
14342;SDS011;7255;53.596;9.960;2023-11-19T09:02:41;33.83;;;6.12;;
14342;SDS011;7255;53.596;9.960;2023-11-19T09:05:08;20.02;;;5.57;;
14342;SDS011;7255;53.596;9.960;2023-11-19T09:07:34;19.70;;;6.07;;
14342;SDS011;7255;53.596;9.960;2023-11-19T09:10:00;18.10;;;4.50;;
14342;SDS011;7255;53.596;9.960;2023-11-19T09:12:27;18.40;;;5.10;;
14342;SDS011;7255;53.596;9.960;2023-11-19T09:14:53;17.33;;;5.05;;
14342;SDS011;7255;53.596;9.960;2023-11-19T09:17:20;25.08;;;5.32;;
14342;SDS011;7255;53.596;9.960;2023-11-19T09:19:47;31.50;;;5.40;;
14342;SDS011;7255;53.596;9.960;2023-11-19T09:22:14;29.15;;;5.05;;
14342;SDS011;7255;53.596;9.960;2023-11-19T09:24:40;22.55;;;5.28;;
14342;SDS011;7255;53.596;9.960;2023-11-19T09:27:07;18.67;;;5.12;;
14342;SDS011;7255;53.596;9.960;2023-11-19T09:29:33;24.75;;;7.10;;
14342;SDS011;7255;53.596;9.960;2023-11-19T09:32:00;24.33;;;4.45;;
14342;SDS011;7255;53.596;9.960;2023-11-19T09:34:26;20.52;;;4.47;;
14342;SDS011;7255;53.596;9.960;2023-11-19T09:36:54;25.67;;;5.43;;
14342;SDS011;7255;53.596;9.960;2023-11-19T09:39:20;34.10;;;5.57;;
14342;SDS011;7255;53.596;9.960;2023-11-19T09:41:47;20.85;;;4.80;;
14342;SDS011;7255;53.596;9.960;2023-11-19T09:44:14;23.95;;;4.78;;
14342;SDS011;7255;53.596;9.960;2023-11-19T09:46:43;21.00;;;4.18;;
14342;SDS011;7255;53.596;9.960;2023-11-19T09:49:10;23.38;;;4.70;;
14342;SDS011;7255;53.596;9.960;2023-11-19T09:51:37;20.02;;;4.40;;
14342;SDS011;7255;53.596;9.960;2023-11-19T09:54:05;29.37;;;6.25;;
14342;SDS011;7255;53.596;9.960;2023-11-19T09:56:32;16.48;;;4.03;;
14342;SDS011;7255;53.596;9.960;2023-11-19T09:58:59;22.37;;;4.80;;
14342;SDS011;7255;53.596;9.960;2023-11-19T10:01:25;23.20;;;4.37;;
14342;SDS011;7255;53.596;9.960;2023-11-19T10:03:52;17.62;;;4.80;;
14342;SDS011;7255;53.596;9.960;2023-11-19T10:06:21;15.50;;;3.40;;
14342;SDS011;7255;53.596;9.960;2023-11-19T10:08:48;19.40;;;3.70;;
14342;SDS011;7255;53.596;9.960;2023-11-19T10:11:15;23.08;;;4.20;;
14342;SDS011;7255;53.596;9.960;2023-11-19T10:13:43;19.80;;;4.35;;
14342;SDS011;7255;53.596;9.960;2023-11-19T10:16:12;22.77;;;4.05;;
14342;SDS011;7255;53.596;9.960;2023-11-19T10:18:42;18.10;;;4.28;;
14342;SDS011;7255;53.596;9.960;2023-11-19T10:21:11;16.77;;;4.50;;
14342;SDS011;7255;53.596;9.960;2023-11-19T10:23:48;17.95;;;4.15;;
14342;SDS011;7255;53.596;9.960;2023-11-19T10:26:16;16.00;;;4.10;;
14342;SDS011;7255;53.596;9.960;2023-11-19T10:28:43;20.48;;;4.20;;
14342;SDS011;7255;53.596;9.960;2023-11-19T10:31:11;16.30;;;4.05;;
14342;SDS011;7255;53.596;9.960;2023-11-19T10:33:38;21.23;;;4.85;;
14342;SDS011;7255;53.596;9.960;2023-11-19T10:36:04;23.52;;;4.57;;
14342;SDS011;7255;53.596;9.960;2023-11-19T10:38:31;11.88;;;3.65;;
14342;SDS011;7255;53.596;9.960;2023-11-19T10:40:58;17.87;;;3.92;;
14342;SDS011;7255;53.596;9.960;2023-11-19T10:43:26;16.15;;;3.75;;
14342;SDS011;7255;53.596;9.960;2023-11-19T10:45:52;19.62;;;4.22;;
14342;SDS011;7255;53.596;9.960;2023-11-19T10:48:19;21.85;;;3.75;;
14342;SDS011;7255;53.596;9.960;2023-11-19T10:50:46;26.95;;;4.50;;
14342;SDS011;7255;53.596;9.960;2023-11-19T10:53:19;18.48;;;4.30;;
14342;SDS011;7255;53.596;9.960;2023-11-19T10:55:46;12.57;;;3.53;;
14342;SDS011;7255;53.596;9.960;2023-11-19T10:58:15;21.95;;;3.92;;
14342;SDS011;7255;53.596;9.960;2023-11-19T11:00:45;14.95;;;4.43;;
14342;SDS011;7255;53.596;9.960;2023-11-19T11:03:15;17.98;;;3.60;;
14342;SDS011;7255;53.596;9.960;2023-11-19T11:05:43;27.85;;;4.43;;
14342;SDS011;7255;53.596;9.960;2023-11-19T11:08:13;19.62;;;3.90;;
14342;SDS011;7255;53.596;9.960;2023-11-19T11:10:42;18.08;;;4.43;;
14342;SDS011;7255;53.596;9.960;2023-11-19T11:13:10;16.45;;;3.67;;
14342;SDS011;7255;53.596;9.960;2023-11-19T11:15:37;17.77;;;3.72;;
14342;SDS011;7255;53.596;9.960;2023-11-19T11:18:05;17.12;;;4.53;;
14342;SDS011;7255;53.596;9.960;2023-11-19T11:20:34;25.35;;;4.12;;
14342;SDS011;7255;53.596;9.960;2023-11-19T11:23:06;15.88;;;3.50;;
14342;SDS011;7255;53.596;9.960;2023-11-19T11:25:52;20.10;;;5.93;;
14342;SDS011;7255;53.596;9.960;2023-11-19T11:28:31;20.15;;;3.90;;
14342;SDS011;7255;53.596;9.960;2023-11-19T11:31:08;19.08;;;4.15;;
14342;SDS011;7255;53.596;9.960;2023-11-19T11:33:45;14.70;;;3.92;;
14342;SDS011;7255;53.596;9.960;2023-11-19T11:36:25;17.70;;;4.12;;
14342;SDS011;7255;53.596;9.960;2023-11-19T11:38:52;12.52;;;3.83;;
14342;SDS011;7255;53.596;9.960;2023-11-19T11:41:22;20.33;;;4.28;;
14342;SDS011;7255;53.596;9.960;2023-11-19T11:43:50;15.75;;;3.92;;
14342;SDS011;7255;53.596;9.960;2023-11-19T11:49:27;14.00;;;3.60;;
14342;SDS011;7255;53.596;9.960;2023-11-19T11:51:58;21.10;;;4.72;;
14342;SDS011;7255;53.596;9.960;2023-11-19T11:54:29;23.33;;;3.65;;
14342;SDS011;7255;53.596;9.960;2023-11-19T11:59:45;25.70;;;4.05;;
14342;SDS011;7255;53.596;9.960;2023-11-19T12:02:12;21.02;;;4.22;;
14342;SDS011;7255;53.596;9.960;2023-11-19T12:04:42;22.92;;;4.62;;
14342;SDS011;7255;53.596;9.960;2023-11-19T12:07:12;16.98;;;3.80;;
14342;SDS011;7255;53.596;9.960;2023-11-19T12:09:40;17.75;;;4.12;;
14342;SDS011;7255;53.596;9.960;2023-11-19T12:12:08;18.80;;;4.03;;
14342;SDS011;7255;53.596;9.960;2023-11-19T12:17:41;13.57;;;4.12;;
14342;SDS011;7255;53.596;9.960;2023-11-19T12:20:11;21.48;;;4.07;;
14342;SDS011;7255;53.596;9.960;2023-11-19T12:22:38;16.45;;;3.72;;
14342;SDS011;7255;53.596;9.960;2023-11-19T12:25:06;14.25;;;3.37;;
14342;SDS011;7255;53.596;9.960;2023-11-19T12:27:33;18.70;;;4.03;;
14342;SDS011;7255;53.596;9.960;2023-11-19T12:30:00;24.23;;;4.68;;
14342;SDS011;7255;53.596;9.960;2023-11-19T12:32:27;15.13;;;4.18;;
14342;SDS011;7255;53.596;9.960;2023-11-19T12:35:03;13.23;;;3.70;;
14342;SDS011;7255;53.596;9.960;2023-11-19T12:37:31;22.95;;;3.55;;
14342;SDS011;7255;53.596;9.960;2023-11-19T12:39:57;14.23;;;3.83;;
14342;SDS011;7255;53.596;9.960;2023-11-19T12:42:34;24.45;;;3.85;;
14342;SDS011;7255;53.596;9.960;2023-11-19T12:45:01;11.48;;;3.15;;
14342;SDS011;7255;53.596;9.960;2023-11-19T12:47:27;18.75;;;5.05;;
14342;SDS011;7255;53.596;9.960;2023-11-19T12:49:57;15.68;;;4.20;;
14342;SDS011;7255;53.596;9.960;2023-11-19T12:52:23;18.05;;;3.95;;
14342;SDS011;7255;53.596;9.960;2023-11-19T12:54:51;17.15;;;3.42;;
14342;SDS011;7255;53.596;9.960;2023-11-19T12:57:17;19.60;;;4.03;;
14342;SDS011;7255;53.596;9.960;2023-11-19T12:59:54;22.00;;;3.95;;
14342;SDS011;7255;53.596;9.960;2023-11-19T13:02:21;18.02;;;3.90;;
14342;SDS011;7255;53.596;9.960;2023-11-19T13:04:48;19.83;;;3.80;;
14342;SDS011;7255;53.596;9.960;2023-11-19T13:07:19;14.55;;;3.45;;
14342;SDS011;7255;53.596;9.960;2023-11-19T13:09:46;20.85;;;3.75;;
14342;SDS011;7255;53.596;9.960;2023-11-19T13:12:14;21.42;;;4.57;;
14342;SDS011;7255;53.596;9.960;2023-11-19T13:14:41;24.90;;;4.40;;
14342;SDS011;7255;53.596;9.960;2023-11-19T13:17:12;19.87;;;3.87;;
14342;SDS011;7255;53.596;9.960;2023-11-19T13:19:39;23.60;;;4.95;;
14342;SDS011;7255;53.596;9.960;2023-11-19T13:22:05;17.85;;;3.47;;
14342;SDS011;7255;53.596;9.960;2023-11-19T13:24:31;11.70;;;3.15;;
14342;SDS011;7255;53.596;9.960;2023-11-19T13:26:58;17.17;;;3.80;;
14342;SDS011;7255;53.596;9.960;2023-11-19T13:29:25;17.67;;;4.20;;
14342;SDS011;7255;53.596;9.960;2023-11-19T13:31:52;19.02;;;4.10;;
14342;SDS011;7255;53.596;9.960;2023-11-19T13:34:18;11.88;;;3.85;;
14342;SDS011;7255;53.596;9.960;2023-11-19T13:36:45;17.80;;;4.45;;
14342;SDS011;7255;53.596;9.960;2023-11-19T13:39:11;19.60;;;3.87;;
14342;SDS011;7255;53.596;9.960;2023-11-19T13:41:37;18.55;;;4.18;;
14342;SDS011;7255;53.596;9.960;2023-11-19T13:44:05;19.25;;;3.65;;
14342;SDS011;7255;53.596;9.960;2023-11-19T13:46:32;21.90;;;4.53;;
14342;SDS011;7255;53.596;9.960;2023-11-19T13:48:59;19.12;;;3.78;;
14342;SDS011;7255;53.596;9.960;2023-11-19T13:51:25;17.73;;;4.15;;
14342;SDS011;7255;53.596;9.960;2023-11-19T13:53:51;10.95;;;3.25;;
14342;SDS011;7255;53.596;9.960;2023-11-19T13:56:18;17.98;;;4.18;;
14342;SDS011;7255;53.596;9.960;2023-11-19T13:58:44;19.80;;;4.22;;
14342;SDS011;7255;53.596;9.960;2023-11-19T14:01:10;16.92;;;3.55;;
14342;SDS011;7255;53.596;9.960;2023-11-19T14:03:39;18.12;;;3.37;;
14342;SDS011;7255;53.596;9.960;2023-11-19T14:06:06;16.42;;;3.37;;
14342;SDS011;7255;53.596;9.960;2023-11-19T14:08:33;19.02;;;3.85;;
14342;SDS011;7255;53.596;9.960;2023-11-19T14:11:00;18.85;;;3.70;;
14342;SDS011;7255;53.596;9.960;2023-11-19T14:13:26;12.90;;;3.95;;
14342;SDS011;7255;53.596;9.960;2023-11-19T14:15:52;20.83;;;4.30;;
14342;SDS011;7255;53.596;9.960;2023-11-19T14:18:19;16.62;;;3.40;;
14342;SDS011;7255;53.596;9.960;2023-11-19T14:20:47;13.57;;;3.85;;
14342;SDS011;7255;53.596;9.960;2023-11-19T14:23:13;15.07;;;3.50;;
14342;SDS011;7255;53.596;9.960;2023-11-19T14:25:39;20.08;;;3.95;;
14342;SDS011;7255;53.596;9.960;2023-11-19T14:28:06;18.08;;;3.53;;
14342;SDS011;7255;53.596;9.960;2023-11-19T14:30:32;17.73;;;4.10;;
14342;SDS011;7255;53.596;9.960;2023-11-19T14:32:59;11.45;;;3.83;;
14342;SDS011;7255;53.596;9.960;2023-11-19T14:35:25;17.30;;;3.12;;
14342;SDS011;7255;53.596;9.960;2023-11-19T14:37:53;11.70;;;3.65;;
14342;SDS011;7255;53.596;9.960;2023-11-19T14:40:19;12.05;;;2.83;;
14342;SDS011;7255;53.596;9.960;2023-11-19T14:42:46;12.80;;;2.92;;
14342;SDS011;7255;53.596;9.960;2023-11-19T14:45:13;16.37;;;3.95;;
14342;SDS011;7255;53.596;9.960;2023-11-19T14:47:39;13.75;;;3.75;;
14342;SDS011;7255;53.596;9.960;2023-11-19T14:50:06;12.63;;;3.00;;
14342;SDS011;7255;53.596;9.960;2023-11-19T14:52:34;12.07;;;3.10;;
14342;SDS011;7255;53.596;9.960;2023-11-19T14:55:02;13.13;;;3.60;;
14342;SDS011;7255;53.596;9.960;2023-11-19T14:57:29;12.13;;;2.70;;
14342;SDS011;7255;53.596;9.960;2023-11-19T14:59:55;7.57;;;1.92;;
14342;SDS011;7255;53.596;9.960;2023-11-19T15:02:22;9.10;;;2.83;;